sensor_id;sensor_type;location;lat;lon;timestamp;temperature;humidity
2314;DHT22;42279;51.388;7.000;2023-04-30T04:11:32;6.80;99.90
2314;DHT22;42279;51.388;7.000;2023-04-30T04:13:59;6.80;99.90
2314;DHT22;42279;51.388;7.000;2023-04-30T04:16:24;6.90;99.90
2314;DHT22;42279;51.388;7.000;2023-04-30T06:40:21;17.10;99.90
2314;DHT22;42279;51.388;7.000;2023-04-30T06:42:47;17.30;99.90
2314;DHT22;42279;51.388;7.000;2023-04-30T06:45:12;17.40;99.90
2314;DHT22;42279;51.388;7.000;2023-04-30T06:47:39;17.00;99.90
2314;DHT22;42279;51.388;7.000;2023-04-30T06:50:07;17.80;99.90
2314;DHT22;42279;51.388;7.000;2023-04-30T06:52:33;17.20;99.90
2314;DHT22;42279;51.388;7.000;2023-04-30T06:54:59;17.90;99.90
2314;DHT22;42279;51.388;7.000;2023-04-30T06:57:25;17.50;99.90
2314;DHT22;42279;51.388;7.000;2023-04-30T06:59:52;17.60;99.90
2314;DHT22;42279;51.388;7.000;2023-04-30T07:02:17;18.00;99.90
2314;DHT22;42279;51.388;7.000;2023-04-30T07:33:59;19.80;99.90
2314;DHT22;42279;51.388;7.000;2023-04-30T08:25:11;20.60;90.50
2314;DHT22;42279;51.388;7.000;2023-04-30T08:27:38;20.40;94.40
2314;DHT22;42279;51.388;7.000;2023-04-30T08:30:05;21.20;93.90
2314;DHT22;42279;51.388;7.000;2023-04-30T08:32:33;20.60;92.50
2314;DHT22;42279;51.388;7.000;2023-04-30T08:35:01;20.90;94.20
2314;DHT22;42279;51.388;7.000;2023-04-30T08:37:27;20.80;93.30
2314;DHT22;42279;51.388;7.000;2023-04-30T08:39:52;20.80;94.30
2314;DHT22;42279;51.388;7.000;2023-04-30T08:42:20;21.30;92.90
2314;DHT22;42279;51.388;7.000;2023-04-30T08:44:49;21.30;93.10
2314;DHT22;42279;51.388;7.000;2023-04-30T08:47:23;22.90;91.90
2314;DHT22;42279;51.388;7.000;2023-04-30T10:14:11;27.50;71.20
2314;DHT22;42279;51.388;7.000;2023-04-30T10:16:45;26.90;74.20
2314;DHT22;42279;51.388;7.000;2023-04-30T10:24:26;27.60;63.70
2314;DHT22;42279;51.388;7.000;2023-04-30T10:26:51;26.80;71.00
2314;DHT22;42279;51.388;7.000;2023-04-30T10:29:17;27.60;70.50
2314;DHT22;42279;51.388;7.000;2023-04-30T10:31:47;26.60;59.70
2314;DHT22;42279;51.388;7.000;2023-04-30T10:34:48;26.90;61.60
2314;DHT22;42279;51.388;7.000;2023-04-30T10:39:48;27.60;77.00
2314;DHT22;42279;51.388;7.000;2023-04-30T10:42:15;28.60;59.30
2314;DHT22;42279;51.388;7.000;2023-04-30T10:44:40;27.80;59.70
2314;DHT22;42279;51.388;7.000;2023-04-30T15:22:56;21.40;59.10
2314;DHT22;42279;51.388;7.000;2023-04-30T15:25:22;21.60;59.80
2314;DHT22;42279;51.388;7.000;2023-04-30T15:27:50;21.70;57.90
2314;DHT22;42279;51.388;7.000;2023-04-30T15:30:17;20.90;59.20
2314;DHT22;42279;51.388;7.000;2023-04-30T15:32:42;20.70;60.20
2314;DHT22;42279;51.388;7.000;2023-04-30T15:35:08;20.80;61.60
2314;DHT22;42279;51.388;7.000;2023-04-30T19:53:58;15.20;99.30
2314;DHT22;42279;51.388;7.000;2023-04-30T19:56:24;15.40;99.90
2314;DHT22;42279;51.388;7.000;2023-04-30T19:58:50;15.10;99.90
2314;DHT22;42279;51.388;7.000;2023-04-30T20:01:15;15.00;99.90
2314;DHT22;42279;51.388;7.000;2023-04-30T20:03:42;15.20;99.90
2314;DHT22;42279;51.388;7.000;2023-04-30T20:15:53;14.80;99.90
2314;DHT22;42279;51.388;7.000;2023-04-30T20:18:19;14.80;99.90
2314;DHT22;42279;51.388;7.000;2023-04-30T20:20:45;14.50;99.90
2314;DHT22;42279;51.388;7.000;2023-04-30T20:23:13;15.40;99.90
2314;DHT22;42279;51.388;7.000;2023-04-30T20:25:43;14.80;99.90
2314;DHT22;42279;51.388;7.000;2023-04-30T20:28:10;14.80;99.90
2314;DHT22;42279;51.388;7.000;2023-04-30T20:33:04;14.50;99.90
2314;DHT22;42279;51.388;7.000;2023-04-30T20:35:30;14.20;99.90
2314;DHT22;42279;51.388;7.000;2023-04-30T20:37:56;14.40;99.90
2314;DHT22;42279;51.388;7.000;2023-04-30T20:45:16;15.00;99.90
2314;DHT22;42279;51.388;7.000;2023-04-30T20:47:42;14.30;99.90
2314;DHT22;42279;51.388;7.000;2023-04-30T20:50:08;14.50;99.90
2314;DHT22;42279;51.388;7.000;2023-04-30T20:55:00;14.30;99.90
2314;DHT22;42279;51.388;7.000;2023-04-30T20:57:25;14.20;99.90
2314;DHT22;42279;51.388;7.000;2023-04-30T20:59:51;14.20;99.90
2314;DHT22;42279;51.388;7.000;2023-04-30T21:02:17;14.00;99.90
2314;DHT22;42279;51.388;7.000;2023-04-30T21:04:42;14.10;99.90
2314;DHT22;42279;51.388;7.000;2023-04-30T21:07:08;14.00;99.90
2314;DHT22;42279;51.388;7.000;2023-04-30T21:09:33;13.80;99.90
2314;DHT22;42279;51.388;7.000;2023-04-30T21:12:03;13.80;99.90
2314;DHT22;42279;51.388;7.000;2023-04-30T21:14:30;13.90;99.90
2314;DHT22;42279;51.388;7.000;2023-04-30T21:16:55;13.80;99.90
2314;DHT22;42279;51.388;7.000;2023-04-30T21:19:21;13.70;99.90
2314;DHT22;42279;51.388;7.000;2023-04-30T21:26:39;13.70;99.90
2314;DHT22;42279;51.388;7.000;2023-04-30T21:31:31;13.80;99.90
2314;DHT22;42279;51.388;7.000;2023-04-30T21:38:49;13.20;99.90
2314;DHT22;42279;51.388;7.000;2023-04-30T21:41:16;13.90;99.90
2314;DHT22;42279;51.388;7.000;2023-04-30T21:53:28;14.10;99.90
2314;DHT22;42279;51.388;7.000;2023-04-30T21:55:54;13.90;99.90
2314;DHT22;42279;51.388;7.000;2023-04-30T21:58:19;14.80;99.90
2314;DHT22;42279;51.388;7.000;2023-04-30T22:00:45;13.70;99.90
2314;DHT22;42279;51.388;7.000;2023-04-30T22:03:10;13.70;99.90
2314;DHT22;42279;51.388;7.000;2023-04-30T22:05:36;13.50;99.90
2314;DHT22;42279;51.388;7.000;2023-04-30T22:08:04;13.50;99.90
2314;DHT22;42279;51.388;7.000;2023-04-30T22:10:29;13.50;99.90
2314;DHT22;42279;51.388;7.000;2023-04-30T22:12:55;13.20;99.90
2314;DHT22;42279;51.388;7.000;2023-04-30T22:15:21;13.10;99.90
2314;DHT22;42279;51.388;7.000;2023-04-30T22:17:47;12.80;99.90
2314;DHT22;42279;51.388;7.000;2023-04-30T22:20:13;12.70;99.90
2314;DHT22;42279;51.388;7.000;2023-04-30T22:22:39;12.90;99.90
2314;DHT22;42279;51.388;7.000;2023-04-30T22:25:04;12.80;99.90
2314;DHT22;42279;51.388;7.000;2023-04-30T22:27:30;12.80;99.90
2314;DHT22;42279;51.388;7.000;2023-04-30T22:29:56;12.70;99.90
2314;DHT22;42279;51.388;7.000;2023-04-30T22:32:22;12.90;99.90
2314;DHT22;42279;51.388;7.000;2023-04-30T22:34:47;12.60;99.90
2314;DHT22;42279;51.388;7.000;2023-04-30T22:37:14;12.70;99.90
2314;DHT22;42279;51.388;7.000;2023-04-30T22:39:40;12.80;99.90
2314;DHT22;42279;51.388;7.000;2023-04-30T22:42:07;12.70;99.90
2314;DHT22;42279;51.388;7.000;2023-04-30T22:47:00;12.60;99.90
2314;DHT22;42279;51.388;7.000;2023-04-30T22:49:28;12.60;99.90
2314;DHT22;42279;51.388;7.000;2023-04-30T22:51:53;12.60;99.90
2314;DHT22;42279;51.388;7.000;2023-04-30T22:54:19;12.60;99.90
2314;DHT22;42279;51.388;7.000;2023-04-30T22:56:45;12.60;99.90
2314;DHT22;42279;51.388;7.000;2023-04-30T22:59:11;12.20;99.90
2314;DHT22;42279;51.388;7.000;2023-04-30T23:01:36;12.50;99.90
2314;DHT22;42279;51.388;7.000;2023-04-30T23:04:02;12.50;99.90
2314;DHT22;42279;51.388;7.000;2023-04-30T23:06:29;12.30;99.90
2314;DHT22;42279;51.388;7.000;2023-04-30T23:08:55;12.30;99.90
2314;DHT22;42279;51.388;7.000;2023-04-30T23:11:20;12.40;99.90
2314;DHT22;42279;51.388;7.000;2023-04-30T23:13:46;12.20;99.90
2314;DHT22;42279;51.388;7.000;2023-04-30T23:16:12;12.20;99.90
2314;DHT22;42279;51.388;7.000;2023-04-30T23:18:38;12.20;99.90
2314;DHT22;42279;51.388;7.000;2023-04-30T23:21:04;12.10;99.90
2314;DHT22;42279;51.388;7.000;2023-04-30T23:23:31;12.20;99.90
2314;DHT22;42279;51.388;7.000;2023-04-30T23:25:56;12.10;99.90
2314;DHT22;42279;51.388;7.000;2023-04-30T23:33:18;11.90;99.90
2314;DHT22;42279;51.388;7.000;2023-04-30T23:35:44;11.80;99.90
